Villa Union, Argentina
Current Conditions -  °F | °C
As of 5:00 AM on Sunday 23 Nov 2014 (Local Time) from SCSE Reporting Station
Overcast Overcast  
Wind Chill: 55°   Ceiling: 1300
Heat Index: 55°   Visibility: 6mi
Dew Point: 50°   Wind: 1mph
Humidity: 82%   Direction: 150°SSE
Pressure: 29.94"   Gusts: NA
Location:  29.3°S, 68.2°W
Report Text: SCSE 230800Z 15001KT 9999 OVC013 13/10 Q1014
Loading
Personal Weather Stations






























Interactive Weather Map New forecast layout! Learn more

10-Day Weather Forecast

Advertisements
Track Severe Weather on mobile